This is the latest recevied weather packets stored in our database for station/object IW4DZV-13. If no packets are shown the sender has not sent any weather packets the latest 10 day(s).
| Time | Temp. | Humidity | Pressure | Rain* | Wind** | Luminosity | Snow |
|---|---|---|---|---|---|---|---|
| 1787921109 | 33.33° C | 59% | 1013 hPa | 0.25 mm | - | 592 W/m² | - |
| 1787920207 | 33.33° C | 61% | 1013.2 hPa | 0.25 mm | - | 636 W/m² | - |
| 1787919304 | 32.78° C | 60% | 1013.4 hPa | 0.25 mm | - | 540 W/m² | - |
| 1787918402 | 32.78° C | 62% | 1013.4 hPa | 0.25 mm | - | 666 W/m² | - |
| 1787917559 | 32.22° C | 67% | 1013.6 hPa | 0.25 mm | - | 691 W/m² | - |
| 1787916657 | 32.22° C | 65% | 1013.5 hPa | 0.25 mm | - | 448 W/m² | - |
| 1787915754 | 31.67° C | 68% | 1013.7 hPa | 0.25 mm | - | 717 W/m² | - |
| 1787914852 | 31.67° C | 69% | 1013.8 hPa | 0.25 mm | - | 696 W/m² | - |
| 1787913963 | 31.11° C | 70% | 1013.8 hPa | 0.25 mm | - | 691 W/m² | - |
| 1787913049 | 31.11° C | 71% | 1014 hPa | 0.25 mm | - | 664 W/m² | - |
| 1787912147 | 30.56° C | 74% | 1014.2 hPa | 0.25 mm | - | 694 W/m² | - |
| 1787911244 | 30° C | 73% | 1014.2 hPa | 0.25 mm | - | 659 W/m² | - |
| 1787910344 | 30° C | 75% | 1014.5 hPa | 0.25 mm | - | 652 W/m² | - |
| 1787909437 | 29.44° C | 77% | 1014.5 hPa | 0.25 mm | - | 571 W/m² | - |
| 1787908537 | 28.89° C | 78% | 1014.4 hPa | 0.25 mm | - | 557 W/m² | - |
| 1787907629 | 28.33° C | 79% | 1014.7 hPa | 0.25 mm | - | 564 W/m² | - |
| 1787906726 | 28.33° C | 80% | 1014.9 hPa | 0.25 mm | - | 522 W/m² | - |
| 1787905823 | 27.22° C | 82% | 1014.8 hPa | 0.25 mm | - | 432 W/m² | - |
| 1787904923 | 27.78° C | 81% | 1014.8 hPa | 0.25 mm | - | 243 W/m² | - |
| 1787904020 | 27.22° C | 84% | 1014.8 hPa | 0.25 mm | - | 459 W/m² | - |
| 1787903116 | 26.67° C | 86% | 1015.1 hPa | 0.25 mm | - | 285 W/m² | - |
| 1787902212 | 25.56° C | 87% | 1015.1 hPa | 0.25 mm | - | 290 W/m² | - |
| 1787901310 | 25° C | 87% | 1015.4 hPa | 0.25 mm | - | 211 W/m² | - |
| 1787900406 | 24.44° C | 87% | 1015.7 hPa | 0.25 mm | - | 178 W/m² | - |
| 1787899508 | 24.44° C | 88% | 1015.8 hPa | 0.25 mm | - | 149 W/m² | - |
* Rain since midnight (hover to see other rain measurements)
** Current wind speed in m/s (hover to see current wind gust speed)